Time;durP1;ratioP1;P1;durP2;ratioP2;P2;SDS_P1;SDS_P2;PMS_P1;PMS_P2;Temp;Humidity;BMP_temperature;BMP_pressure;BME280_temperature;BME280_humidity;BME280_pressure;Samples;Min_cycle;Max_cycle;Signal;HPM_P1;HPM_P2
2022/01/03 00:01:16;;;;;;;62.15;38.65;;;205.50;2252.80;;;;;;5021636;28;20384;-76
2022/01/03 00:03:42;;;;;;;63.92;42.17;;;205.50;2252.80;;;;;;5021372;28;20141;-77
2022/01/03 00:06:08;;;;;;;68.90;39.72;;;205.50;2252.80;;;;;;5016394;28;20042;-77
2022/01/03 00:08:34;;;;;;;61.92;41.80;;;205.50;2252.80;;;;;;5023430;28;20030;-77
2022/01/03 00:11:00;;;;;;;54.08;38.72;;;205.50;2252.80;;;;;;5024801;28;20036;-77
2022/01/03 00:13:27;;;;;;;62.75;43.83;;;205.50;2252.80;;;;;;5023272;28;20026;-77
2022/01/03 00:15:55;;;;;;;65.97;41.47;;;205.50;2252.80;;;;;;5025341;28;20057;-77
2022/01/03 00:18:21;;;;;;;64.80;43.33;;;205.40;2252.80;;;;;;5019615;28;20026;-77
2022/01/03 00:20:57;;;;;;;63.70;45.22;;;205.40;2252.80;;;;;;5022545;28;20049;-77
2022/01/03 00:23:29;;;;;;;70.72;44.85;;;205.30;2252.80;;;;;;5023666;28;20556;-76
2022/01/03 00:26:01;;;;;;;75.68;48.10;;;205.30;2252.80;;;;;;5032071;28;20421;-76
2022/01/03 00:28:34;;;;;;;69.45;45.20;;;205.30;2252.80;;;;;;5018363;28;20059;-77
2022/01/03 00:31:01;;;;;;;59.67;44.17;;;205.30;2252.80;;;;;;5018513;28;20029;-77
2022/01/03 00:33:27;;;;;;;67.00;44.55;;;205.30;2252.80;;;;;;5022650;28;20022;-77
2022/01/03 00:35:58;;;;;;;70.35;45.70;;;205.30;2252.80;;;;;;5018849;28;20026;-77
2022/01/03 00:38:28;;;;;;;69.68;44.00;;;205.20;2252.80;;;;;;5019016;28;20485;-77
2022/01/03 00:40:55;;;;;;;63.92;45.50;;;205.30;2252.80;;;;;;5024162;28;20026;-76
2022/01/03 00:43:21;;;;;;;66.20;42.92;;;205.30;2252.80;;;;;;5027150;28;20120;-77
2022/01/03 00:45:50;;;;;;;63.35;42.45;;;205.30;2252.80;;;;;;5028201;28;20484;-78
2022/01/03 00:48:16;;;;;;;64.18;44.15;;;205.40;2252.80;;;;;;5043009;28;20034;-77
2022/01/03 00:50:41;;;;;;;58.60;39.97;;;205.30;2252.80;;;;;;5038408;28;20030;-77
2022/01/03 00:53:08;;;;;;;61.72;43.10;;;205.30;2252.80;;;;;;5039063;28;20033;-77
2022/01/03 00:55:35;;;;;;;65.70;42.20;;;205.30;2252.80;;;;;;5021891;28;20451;-77
2022/01/03 00:58:09;;;;;;;64.30;42.60;;;205.30;2252.80;;;;;;5020029;28;20106;-77
2022/01/03 01:00:40;;;;;;;62.53;38.83;;;205.30;2252.80;;;;;;5020691;28;20026;-77
2022/01/03 01:03:21;;;;;;;60.47;44.10;;;205.30;2252.80;;;;;;5028820;28;20026;-77
2022/01/03 01:05:53;;;;;;;62.72;40.97;;;205.30;2252.80;;;;;;5025966;28;20136;-77
2022/01/03 01:08:23;;;;;;;62.20;41.70;;;205.20;2252.80;;;;;;5028919;28;20452;-77
2022/01/03 01:10:52;;;;;;;62.20;40.63;;;205.20;2252.80;;;;;;5024012;28;20032;-78
2022/01/03 01:13:20;;;;;;;68.13;43.90;;;205.20;2252.80;;;;;;5024259;28;20124;-77
2022/01/03 01:15:46;;;;;;;65.85;44.95;;;205.10;2252.80;;;;;;5016952;28;20022;-77
2022/01/03 01:18:11;;;;;;;63.55;44.15;;;205.10;2252.80;;;;;;5022320;28;20025;-77
2022/01/03 01:20:39;;;;;;;70.53;45.92;;;205.20;2252.80;;;;;;5033470;28;20025;-77
2022/01/03 01:23:06;;;;;;;75.22;49.42;;;205.20;2252.80;;;;;;5027409;28;20076;-76
2022/01/03 01:28:07;;;;;;;84.57;55.72;;;204.90;2252.80;;;;;;5031591;28;20029;-77
2022/01/03 01:30:33;;;;;;;72.72;49.72;;;204.80;2252.80;;;;;;5020974;28;20022;-77
2022/01/03 01:33:02;;;;;;;69.20;49.95;;;204.80;2252.80;;;;;;5023561;28;20025;-77
2022/01/03 01:35:50;;;;;;;73.75;48.15;;;204.80;2252.80;;;;;;5029755;28;20068;-77
2022/01/03 01:38:31;;;;;;;74.25;49.13;;;204.80;2252.80;;;;;;5033583;28;20096;-76
2022/01/03 01:40:59;;;;;;;73.47;47.53;;;204.80;2252.80;;;;;;5015313;28;20484;-77
2022/01/03 01:43:31;;;;;;;71.90;47.97;;;204.80;2252.80;;;;;;5025861;28;20041;-77
2022/01/03 01:46:00;;;;;;;72.97;51.20;;;204.80;2252.80;;;;;;5030049;28;20030;-76
2022/01/03 01:48:27;;;;;;;75.95;51.33;;;204.80;2252.80;;;;;;5032472;28;20071;-77
2022/01/03 01:50:55;;;;;;;82.78;55.35;;;204.80;2252.80;;;;;;5034380;28;20033;-76
2022/01/03 01:53:24;;;;;;;78.38;52.30;;;180.10;2252.80;;;;;;5034167;28;20028;-76
2022/01/03 01:55:51;;;;;;;74.38;51.42;;;180.10;2252.80;;;;;;5033335;28;20092;-76
2022/01/03 01:58:34;;;;;;;82.68;52.60;;;180.10;2252.80;;;;;;5016875;28;20022;-76
2022/01/03 02:01:04;;;;;;;75.50;52.42;;;180.00;2252.80;;;;;;5018108;28;20084;-77
2022/01/03 02:03:47;;;;;;;78.10;49.50;;;180.00;2252.80;;;;;;5024895;28;20384;-77
2022/01/03 02:06:27;;;;;;;68.82;47.03;;;180.00;2252.80;;;;;;5022272;28;20042;-76
2022/01/03 02:09:07;;;;;;;75.50;48.80;;;180.00;2252.80;;;;;;5025687;28;20071;-77
2022/01/03 02:11:42;;;;;;;76.13;48.95;;;179.90;2252.80;;;;;;5027070;28;20030;-77
2022/01/03 02:14:09;;;;;;;74.47;52.33;;;179.90;2252.80;;;;;;5032461;28;20021;-77
2022/01/03 02:16:35;;;;;;;73.80;48.35;;;179.90;2252.80;;;;;;5017744;28;20679;-77
2022/01/03 02:19:01;;;;;;;71.05;49.83;;;179.90;2252.80;;;;;;5013063;28;20033;-77
2022/01/03 02:21:27;;;;;;;80.57;53.53;;;179.70;2252.80;;;;;;5013707;28;20029;-77
2022/01/03 02:23:52;;;;;;;82.85;52.67;;;179.70;2252.80;;;;;;5029248;28;20401;-77
2022/01/03 02:26:18;;;;;;;77.30;51.45;;;179.70;2252.80;;;;;;5016189;28;20053;-77
2022/01/03 02:28:44;;;;;;;75.57;50.97;;;179.70;2252.80;;;;;;5014274;28;20036;-77
2022/01/03 02:31:09;;;;;;;69.72;48.70;;;179.70;2252.80;;;;;;5032387;28;20099;-77
2022/01/03 02:33:35;;;;;;;70.55;50.47;;;179.70;2252.80;;;;;;5033018;28;20112;-77
2022/01/03 02:36:04;;;;;;;84.78;58.85;;;179.70;2252.80;;;;;;5016402;28;20037;-77
2022/01/03 02:38:30;;;;;;;101.75;70.03;;;179.60;2252.80;;;;;;5026882;28;20025;-77
2022/01/03 02:40:56;;;;;;;159.13;97.85;;;179.60;2252.80;;;;;;5012150;28;20137;-77
2022/01/03 02:43:23;;;;;;;138.70;90.80;;;179.60;2252.80;;;;;;5031473;28;20108;-76
2022/01/03 02:45:48;;;;;;;128.40;82.72;;;179.60;2252.80;;;;;;5032330;28;20051;-76
2022/01/03 02:48:14;;;;;;;133.63;85.03;;;179.60;2252.80;;;;;;5032716;28;20040;-77
2022/01/03 02:50:40;;;;;;;147.27;91.82;;;179.60;2252.80;;;;;;5032028;28;20447;-77
2022/01/03 02:53:06;;;;;;;156.27;96.47;;;179.60;2252.80;;;;;;5032916;28;20384;-76
2022/01/03 02:55:32;;;;;;;128.20;81.85;;;179.50;2252.80;;;;;;5019688;28;20025;-77
2022/01/03 02:58:06;;;;;;;105.10;72.03;;;179.50;2252.80;;;;;;5025447;28;20030;-77
2022/01/03 03:00:33;;;;;;;90.65;63.25;;;179.40;2252.80;;;;;;5013518;28;20129;-77
2022/01/03 03:02:58;;;;;;;97.30;67.50;;;179.30;2252.80;;;;;;5031355;28;20021;-77
2022/01/03 03:05:24;;;;;;;91.53;60.35;;;179.20;2252.80;;;;;;5032697;28;20030;-77
2022/01/03 03:07:53;;;;;;;100.70;58.55;;;154.50;2252.80;;;;;;5019624;28;20038;-77
2022/01/03 03:10:20;;;;;;;90.18;61.15;;;179.20;2252.80;;;;;;5012832;28;20386;-77
2022/01/03 03:12:47;;;;;;;98.97;62.95;;;179.20;1945.60;;;;;;5029764;28;20084;-77
2022/01/03 03:15:15;;;;;;;95.35;62.90;;;179.20;1945.60;;;;;;5031139;28;20031;-77
2022/01/03 03:17:41;;;;;;;102.40;64.03;;;179.20;2176.00;;;;;;5031452;28;20060;-77
2022/01/03 03:20:17;;;;;;;93.93;60.22;;;179.20;2252.80;;;;;;5030736;28;20037;-76
2022/01/03 03:22:44;;;;;;;87.90;57.85;;;179.20;2252.80;;;;;;5022009;28;20053;-76
2022/01/03 03:25:14;;;;;;;90.80;58.50;;;179.20;2252.80;;;;;;5027856;28;20055;-77
2022/01/03 03:27:45;;;;;;;90.05;58.13;;;179.20;2252.80;;;;;;5011499;28;20030;-77
2022/01/03 03:30:22;;;;;;;94.13;58.47;;;179.20;2252.80;;;;;;5026681;28;20079;-77
2022/01/03 03:32:50;;;;;;;83.68;57.65;;;179.20;2252.80;;;;;;5019359;28;20148;-77
2022/01/03 03:35:17;;;;;;;88.85;56.65;;;179.20;2252.80;;;;;;5012638;28;20110;-77
2022/01/03 03:37:43;;;;;;;90.40;59.38;;;179.20;2252.80;;;;;;5029429;28;20064;-77
2022/01/03 03:40:09;;;;;;;85.47;58.70;;;179.20;2252.80;;;;;;5013486;28;20029;-77
2022/01/03 03:42:36;;;;;;;85.53;58.13;;;179.20;2252.80;;;;;;5026220;28;20073;-76
2022/01/03 03:45:03;;;;;;;83.93;56.22;;;179.20;2252.80;;;;;;5030904;28;20029;-76
2022/01/03 03:47:28;;;;;;;83.78;54.67;;;179.20;2252.80;;;;;;5028282;28;20116;-77
2022/01/03 03:49:54;;;;;;;84.30;52.08;;;179.20;2252.80;;;;;;5015346;28;20104;-77
2022/01/03 03:52:20;;;;;;;72.38;52.28;;;179.20;2252.80;;;;;;5030878;28;20472;-77
2022/01/03 03:54:45;;;;;;;80.95;54.58;;;154.50;2252.80;;;;;;5030531;28;20029;-77
2022/01/03 03:57:12;;;;;;;78.30;50.92;;;154.50;2252.80;;;;;;5013544;28;20100;-77
2022/01/03 03:59:38;;;;;;;86.65;56.65;;;154.50;2252.80;;;;;;5016540;28;20065;-77
2022/01/03 04:02:05;;;;;;;77.60;53.85;;;154.50;2252.80;;;;;;5020992;28;20025;-76
2022/01/03 04:04:32;;;;;;;85.38;56.65;;;154.50;2252.80;;;;;;5026941;28;20037;-76
2022/01/03 04:06:58;;;;;;;98.50;61.40;;;154.50;2252.80;;;;;;5016442;28;20049;-77
2022/01/03 04:09:23;;;;;;;97.43;64.40;;;154.40;2252.80;;;;;;5030962;28;20600;-77
2022/01/03 04:11:50;;;;;;;146.02;87.57;;;154.40;2252.80;;;;;;5031678;28;20086;-77
2022/01/03 04:14:16;;;;;;;158.02;94.25;;;154.30;2252.80;;;;;;5021989;28;20397;-77
2022/01/03 04:16:43;;;;;;;199.30;121.32;;;154.30;2252.80;;;;;;5013661;28;20084;-77
2022/01/03 04:19:08;;;;;;;180.55;114.05;;;154.30;2252.80;;;;;;5025171;28;20432;-77
2022/01/03 04:21:39;;;;;;;139.18;91.50;;;154.30;2252.80;;;;;;5020110;28;20025;-77
2022/01/03 04:24:10;;;;;;;121.63;78.22;;;154.30;2252.80;;;;;;5023718;28;20022;-77
2022/01/03 04:26:37;;;;;;;118.13;78.28;;;154.30;2252.80;;;;;;5029687;28;20551;-77
2022/01/03 04:29:03;;;;;;;121.43;81.75;;;154.30;2252.80;;;;;;5011823;28;20539;-77
2022/01/03 04:31:29;;;;;;;127.47;80.18;;;154.30;2252.80;;;;;;5020103;28;20021;-77
2022/01/03 04:33:55;;;;;;;133.32;83.63;;;154.30;2252.80;;;;;;5014863;28;20188;-77
2022/01/03 04:36:21;;;;;;;140.63;83.97;;;154.30;2252.80;;;;;;5030253;28;20041;-77
2022/01/03 04:38:47;;;;;;;163.35;100.97;;;154.20;2252.80;;;;;;5029681;28;20029;-77
2022/01/03 04:41:13;;;;;;;160.27;102.60;;;154.20;2252.80;;;;;;5034488;28;20049;-77
2022/01/03 04:43:41;;;;;;;115.05;76.22;;;154.10;2252.80;;;;;;5025723;28;20021;-77
2022/01/03 04:46:10;;;;;;;106.32;71.00;;;154.20;2252.80;;;;;;5034208;28;20116;-76
2022/01/03 04:48:38;;;;;;;102.50;67.35;;;154.10;2252.80;;;;;;5035888;28;20021;-76
2022/01/03 04:51:04;;;;;;;122.18;75.93;;;154.00;2252.80;;;;;;5035441;28;20440;-76
2022/01/03 04:53:30;;;;;;;119.15;77.88;;;153.90;2252.80;;;;;;5035163;28;20373;-76
2022/01/03 04:55:57;;;;;;;112.50;73.55;;;153.80;2252.80;;;;;;5034088;28;20079;-76
2022/01/03 04:58:22;;;;;;;98.10;67.88;;;153.80;2252.80;;;;;;5035603;28;20030;-77
2022/01/03 05:00:49;;;;;;;101.60;69.50;;;153.80;2176.00;;;;;;5034066;28;20083;-76
2022/01/03 05:03:16;;;;;;;112.80;70.35;;;153.70;2048.00;;;;;;5034473;28;20032;-76
2022/01/03 05:05:42;;;;;;;119.10;71.05;;;153.70;2252.80;;;;;;5034938;28;20047;-76
2022/01/03 05:08:08;;;;;;;106.32;71.00;;;153.60;2252.80;;;;;;5034084;28;20029;-76
2022/01/03 05:10:33;;;;;;;125.22;78.05;;;153.60;2252.80;;;;;;5033764;28;20522;-76
2022/01/03 05:13:00;;;;;;;126.78;81.28;;;153.70;2252.80;;;;;;5034829;28;20022;-76
2022/01/03 05:15:25;;;;;;;126.60;81.07;;;153.80;2252.80;;;;;;5033922;28;20820;-75
2022/01/03 05:17:51;;;;;;;114.55;73.90;;;153.80;2252.80;;;;;;5034887;28;20048;-75
2022/01/03 05:20:17;;;;;;;111.90;71.00;;;153.80;2252.80;;;;;;5034006;28;20484;-76
2022/01/03 05:22:43;;;;;;;108.65;66.68;;;153.90;2252.80;;;;;;5033492;28;20032;-75
2022/01/03 05:25:09;;;;;;;102.82;63.88;;;153.90;2252.80;;;;;;5024934;28;20117;-75
2022/01/03 05:27:37;;;;;;;108.57;66.75;;;154.00;2150.40;;;;;;5014912;28;20106;-75
2022/01/03 05:30:04;;;;;;;90.43;63.65;;;153.90;2252.80;;;;;;5023077;28;20029;-74
2022/01/03 05:32:30;;;;;;;92.25;61.05;;;153.90;2176.00;;;;;;5033301;28;20022;-75
2022/01/03 05:34:55;;;;;;;96.88;66.10;;;153.90;1920.00;;;;;;5034836;28;20056;-75
2022/01/03 05:37:21;;;;;;;100.25;64.60;;;153.80;2252.80;;;;;;5033354;28;20041;-74
2022/01/03 05:39:47;;;;;;;115.70;69.80;;;153.80;2252.80;;;;;;5033062;28;20116;-76
2022/01/03 05:42:13;;;;;;;102.63;69.38;;;153.80;2252.80;;;;;;5033802;28;20034;-75
2022/01/03 05:44:39;;;;;;;102.00;63.22;;;153.80;2252.80;;;;;;5034207;28;20033;-75
2022/01/03 05:47:05;;;;;;;89.70;60.50;;;153.80;2252.80;;;;;;5037245;28;20045;-76
2022/01/03 05:49:31;;;;;;;96.35;64.95;;;153.80;2252.80;;;;;;5051457;28;20016;-76
2022/01/03 05:51:56;;;;;;;94.45;64.15;;;153.80;2227.20;;;;;;5052759;28;20049;-76
2022/01/03 05:54:22;;;;;;;89.97;60.83;;;153.90;1971.20;;;;;;5040022;28;20022;-75
2022/01/03 05:56:48;;;;;;;88.78;58.65;;;153.90;1996.80;;;;;;5034625;28;20535;-76
2022/01/03 05:59:14;;;;;;;91.05;60.60;;;154.00;1920.00;;;;;;5032933;28;20040;-75
2022/01/03 06:01:40;;;;;;;96.28;63.28;;;154.00;2252.80;;;;;;5030718;28;20026;-76
2022/01/03 06:04:14;;;;;;;96.45;61.28;;;153.90;2252.80;;;;;;5014524;28;20104;-75
2022/01/03 06:06:55;;;;;;;95.22;60.80;;;153.90;2252.80;;;;;;5014101;28;20485;-76
2022/01/03 06:09:22;;;;;;;86.85;59.20;;;153.90;1894.40;;;;;;5029739;28;20038;-75
2022/01/03 06:11:50;;;;;;;89.20;61.75;;;153.80;1920.00;;;;;;5014008;28;20083;-75
2022/01/03 06:14:17;;;;;;;87.82;61.00;;;153.80;1971.20;;;;;;5042892;28;20384;-75
2022/01/03 06:16:48;;;;;;;95.30;64.57;;;153.80;2099.20;;;;;;5032619;28;20082;-76
2022/01/03 06:19:14;;;;;;;89.20;62.40;;;153.80;2124.80;;;;;;5033950;28;20022;-76
2022/01/03 06:21:41;;;;;;;94.68;59.35;;;153.80;2201.60;;;;;;5033347;28;20025;-76
2022/01/03 06:24:12;;;;;;;93.82;59.70;;;153.90;1894.40;;;;;;5033521;28;20030;-76
2022/01/03 06:26:39;;;;;;;90.35;60.85;;;153.90;2252.80;;;;;;5032803;28;20029;-76
2022/01/03 06:29:05;;;;;;;87.80;59.08;;;154.00;2252.80;;;;;;5032412;28;20029;-75
2022/01/03 06:31:32;;;;;;;87.10;59.95;;;153.90;2252.80;;;;;;5032679;28;20025;-76
2022/01/03 06:33:58;;;;;;;98.13;65.75;;;153.90;2252.80;;;;;;5033467;28;20025;-75
2022/01/03 06:36:24;;;;;;;97.13;66.75;;;154.00;2252.80;;;;;;5033372;28;20392;-75
2022/01/03 06:38:50;;;;;;;98.20;62.08;;;154.10;2048.00;;;;;;5033726;28;20104;-75
2022/01/03 06:41:16;;;;;;;84.80;57.03;;;154.10;2124.80;;;;;;5033280;28;20068;-76
2022/01/03 06:43:41;;;;;;;88.38;59.35;;;154.10;2022.40;;;;;;5022621;28;20441;-75
2022/01/03 06:46:07;;;;;;;87.72;60.38;;;154.20;1996.80;;;;;;5013476;28;20045;-76
2022/01/03 06:48:33;;;;;;;89.80;59.83;;;154.30;2252.80;;;;;;5013830;28;20545;-76
2022/01/03 06:50:59;;;;;;;82.63;59.25;;;154.40;2252.80;;;;;;5034133;28;20048;-76
2022/01/03 06:53:25;;;;;;;96.05;58.15;;;154.50;2252.80;;;;;;5029704;28;20061;-76
2022/01/03 06:55:50;;;;;;;88.28;58.72;;;154.40;2252.80;;;;;;5031738;28;20022;-75
2022/01/03 06:58:16;;;;;;;96.38;59.50;;;154.40;2252.80;;;;;;5031099;28;20416;-75
2022/01/03 07:00:42;;;;;;;96.47;63.55;;;154.50;2252.80;;;;;;5032946;28;20032;-75
2022/01/03 07:03:07;;;;;;;98.30;62.25;;;179.20;1894.40;;;;;;5032106;28;20060;-75
2022/01/03 07:05:33;;;;;;;93.32;59.38;;;179.30;2252.80;;;;;;5032535;28;20041;-76
2022/01/03 07:07:59;;;;;;;94.60;59.10;;;179.40;2252.80;;;;;;5032508;28;20515;-76
2022/01/03 07:10:26;;;;;;;86.85;55.80;;;179.50;2252.80;;;;;;5033116;28;20033;-76
2022/01/03 07:12:52;;;;;;;80.43;58.05;;;179.60;2252.80;;;;;;5032535;28;20033;-76
2022/01/03 07:20:49;;;;;;;97.15;65.00;;;180.00;2252.80;;;;;;5032991;28;20121;-76
2022/01/03 07:23:17;;;;;;;100.00;62.78;;;180.10;2252.80;;;;;;5033037;28;20365;-76
2022/01/03 07:25:47;;;;;;;83.82;55.97;;;204.80;2252.80;;;;;;5031217;28;20027;-76
2022/01/03 07:28:14;;;;;;;74.32;50.67;;;204.90;2252.80;;;;;;5031640;28;20116;-76
2022/01/03 07:30:40;;;;;;;78.25;51.97;;;205.10;2252.80;;;;;;5030912;28;20078;-75
2022/01/03 07:33:06;;;;;;;81.10;54.30;;;205.20;2252.80;;;;;;5031024;28;20037;-75
2022/01/03 07:35:31;;;;;;;87.07;54.33;;;205.30;2252.80;;;;;;5031954;28;20030;-75
2022/01/03 07:37:58;;;;;;;80.60;54.38;;;205.40;2252.80;;;;;;5027607;28;20022;-76
2022/01/03 07:40:25;;;;;;;84.32;57.72;;;205.60;2252.80;;;;;;5015551;28;20029;-76
2022/01/03 07:42:51;;;;;;;80.30;56.78;;;230.40;2252.80;;;;;;5014042;28;20037;-76
2022/01/03 07:45:18;;;;;;;104.97;69.85;;;230.60;2252.80;;;;;;5032577;28;20029;-76
2022/01/03 07:47:43;;;;;;;96.63;65.28;;;230.80;2252.80;;;;;;5032257;28;20495;-76
2022/01/03 07:50:11;;;;;;;87.97;60.78;;;230.90;2252.80;;;;;;5032218;28;20033;-76
2022/01/03 07:52:37;;;;;;;85.07;56.15;;;231.00;2252.80;;;;;;5027965;28;20025;-76
2022/01/03 07:55:05;;;;;;;78.13;56.35;;;231.10;2252.80;;;;;;5027853;28;20397;-76
2022/01/03 07:57:31;;;;;;;75.28;52.20;;;231.20;2252.80;;;;;;5027409;28;20026;-76
2022/01/03 07:59:57;;;;;;;83.70;54.38;;;231.30;2252.80;;;;;;5027427;28;20021;-76
2022/01/03 08:02:23;;;;;;;74.03;52.67;;;256.00;2252.80;;;;;;5012728;28;20033;-76
2022/01/03 08:04:48;;;;;;;73.88;53.80;;;256.10;2252.80;;;;;;5012149;28;20029;-77
2022/01/03 08:07:14;;;;;;;75.63;54.03;;;256.10;2252.80;;;;;;5012420;28;20060;-76
2022/01/03 08:09:40;;;;;;;89.28;55.35;;;256.20;2252.80;;;;;;5011655;28;20040;-77
2022/01/03 08:12:06;;;;;;;74.68;55.13;;;256.00;2252.80;;;;;;5012352;28;20076;-76
2022/01/03 08:14:32;;;;;;;80.50;61.00;;;256.20;2252.80;;;;;;5027176;28;20029;-76
2022/01/03 08:16:58;;;;;;;80.38;54.67;;;256.20;2252.80;;;;;;5032077;28;20021;-77
2022/01/03 08:19:24;;;;;;;97.38;65.07;;;256.20;2252.80;;;;;;5031438;28;20079;-77
2022/01/03 08:21:50;;;;;;;82.32;58.28;;;256.20;2252.80;;;;;;5020424;28;20499;-77
2022/01/03 08:24:17;;;;;;;80.10;56.47;;;256.20;2252.80;;;;;;5026452;28;20030;-77
2022/01/03 08:26:43;;;;;;;73.93;52.30;;;256.30;2252.80;;;;;;5009663;28;20045;-77
2022/01/03 08:29:09;;;;;;;74.63;57.47;;;256.30;2252.80;;;;;;5029147;28;20381;-77
2022/01/03 08:31:37;;;;;;;83.35;58.47;;;256.40;2252.80;;;;;;5028200;28;20037;-77
2022/01/03 08:34:06;;;;;;;84.28;56.88;;;256.40;2252.80;;;;;;5025987;28;20022;-76
2022/01/03 08:36:32;;;;;;;90.28;65.22;;;256.40;2252.80;;;;;;5024468;28;20485;-77
2022/01/03 08:38:58;;;;;;;102.72;71.18;;;256.40;2252.80;;;;;;5025439;28;20036;-77
2022/01/03 08:41:24;;;;;;;106.05;74.80;;;256.60;2252.80;;;;;;5030734;28;20032;-76
2022/01/03 08:43:51;;;;;;;98.95;66.88;;;256.70;2252.80;;;;;;5023247;28;20026;-76
2022/01/03 08:46:17;;;;;;;86.75;61.13;;;256.90;2252.80;;;;;;5017036;28;20093;-76
2022/01/03 08:48:43;;;;;;;87.53;60.85;;;281.60;2278.40;;;;;;5017973;28;20041;-76
2022/01/03 08:51:08;;;;;;;92.10;67.95;;;281.90;2278.40;;;;;;5014710;28;20030;-76
2022/01/03 08:53:35;;;;;;;81.07;61.85;;;282.00;2278.40;;;;;;5014570;28;20026;-77
2022/01/03 08:56:01;;;;;;;81.05;58.70;;;282.00;2278.40;;;;;;5025624;28;20028;-77
2022/01/03 08:58:28;;;;;;;81.13;58.67;;;282.30;2278.40;;;;;;5031513;28;20025;-77
2022/01/03 09:00:54;;;;;;;84.43;59.03;;;282.50;2278.40;;;;;;5030600;28;20024;-77
2022/01/03 09:03:20;;;;;;;85.50;59.20;;;307.20;2304.00;;;;;;5030220;28;20384;-77
2022/01/03 09:05:47;;;;;;;83.65;58.53;;;307.40;2304.00;;;;;;5031419;28;20045;-77
2022/01/03 09:08:13;;;;;;;73.57;53.08;;;307.60;2304.00;;;;;;5031355;28;20036;-77
2022/01/03 09:10:39;;;;;;;75.25;54.00;;;307.60;2304.00;;;;;;5031556;28;20028;-77
2022/01/03 09:13:05;;;;;;;81.70;57.35;;;307.70;2304.00;;;;;;5031062;28;20025;-77
2022/01/03 09:15:32;;;;;;;79.00;54.83;;;308.00;2304.00;;;;;;5031817;28;20018;-77
2022/01/03 09:17:58;;;;;;;74.53;55.20;;;308.00;2304.00;;;;;;5031672;28;20037;-77
2022/01/03 09:20:24;;;;;;;76.60;55.63;;;332.80;2329.60;;;;;;5029948;28;20025;-77
2022/01/03 09:22:53;;;;;;;80.65;57.97;;;332.90;2329.60;;;;;;5034540;28;20377;-77
2022/01/03 09:30:49;;;;;;;66.32;47.80;;;332.90;2329.60;;;;;;5035062;28;20087;-77
2022/01/03 09:33:16;;;;;;;58.90;41.05;;;332.90;2329.60;;;;;;5034479;28;20036;-77
2022/01/03 09:35:43;;;;;;;66.45;43.58;;;332.90;2329.60;;;;;;5033669;28;20060;-77
2022/01/03 09:38:09;;;;;;;64.90;43.30;;;333.00;2329.60;;;;;;5030739;28;20053;-78
2022/01/03 09:40:38;;;;;;;66.22;45.38;;;333.20;2329.60;;;;;;5024850;28;20030;-77
2022/01/03 09:43:07;;;;;;;63.60;46.78;;;333.30;2329.60;;;;;;5032906;28;20018;-77
2022/01/03 09:45:33;;;;;;;60.63;42.38;;;333.30;2329.60;;;;;;5025790;28;20025;-77
2022/01/03 09:48:00;;;;;;;72.38;46.67;;;333.20;2329.60;;;;;;5028059;28;20033;-77
2022/01/03 09:50:26;;;;;;;73.72;48.50;;;333.40;2329.60;;;;;;5029204;28;20064;-77
2022/01/03 09:52:52;;;;;;;60.60;43.80;;;333.60;2329.60;;;;;;5029476;28;20060;-77
2022/01/03 09:55:20;;;;;;;64.05;43.63;;;358.40;2329.60;;;;;;5033967;28;20017;-78
2022/01/03 09:57:46;;;;;;;53.47;36.55;;;358.50;2329.60;;;;;;5030008;28;20112;-78
2022/01/03 10:00:14;;;;;;;55.65;39.67;;;358.70;2329.60;;;;;;5033594;28;20477;-77
2022/01/03 10:02:41;;;;;;;59.15;40.15;;;358.90;2329.60;;;;;;5032615;28;20029;-78
2022/01/03 10:05:07;;;;;;;42.88;29.90;;;359.00;2329.60;;;;;;5029879;28;20057;-78
2022/01/03 10:07:34;;;;;;;62.35;42.55;;;358.70;2329.60;;;;;;5025940;28;20045;-77
2022/01/03 10:10:00;;;;;;;52.20;36.25;;;358.80;2329.60;;;;;;5032561;28;20049;-78
2022/01/03 10:12:26;;;;;;;60.05;33.67;;;358.90;2329.60;;;;;;5033324;28;20084;-77
2022/01/03 10:14:52;;;;;;;45.45;29.13;;;358.80;2329.60;;;;;;5031497;28;20413;-77
2022/01/03 10:17:18;;;;;;;41.13;27.50;;;358.90;2329.60;;;;;;5030629;28;20014;-77
2022/01/03 10:19:54;;;;;;;44.20;28.85;;;358.90;2329.60;;;;;;5022856;28;20393;-77
2022/01/03 10:22:30;;;;;;;;;;;359.30;2329.60;;;;;;5032268;28;20436;-78
2022/01/03 10:24:57;;;;;;;41.50;28.52;;;384.20;2329.60;;;;;;5026104;28;19959;-77
2022/01/03 10:27:42;;;;;;;45.38;27.80;;;384.40;2329.60;;;;;;5023485;28;20101;-78
2022/01/03 10:30:08;;;;;;;36.60;23.05;;;384.40;2329.60;;;;;;5021309;28;20033;-77
2022/01/03 10:32:35;;;;;;;42.70;27.08;;;384.20;2329.60;;;;;;5019377;28;20120;-77
2022/01/03 10:35:14;;;;;;;30.23;22.75;;;384.10;2329.60;;;;;;5022766;28;20112;-78
2022/01/03 10:37:40;;;;;;;29.48;21.13;;;359.20;2329.60;;;;;;5028843;28;20057;-77
2022/01/03 10:40:30;;;;;;;35.00;23.05;;;359.10;2329.60;;;;;;5028093;28;20409;-77
2022/01/03 10:43:16;;;;;;;29.17;21.58;;;359.00;2329.60;;;;;;5020001;28;20081;-77
2022/01/03 10:45:43;;;;;;;;;;;359.20;2329.60;;;;;;5027021;28;20056;-77
2022/01/03 10:48:35;;;;;;;33.58;18.98;;;359.20;2329.60;;;;;;5038865;28;19909;-77
2022/01/03 10:51:02;;;;;;;32.95;21.77;;;359.20;2329.60;;;;;;5012185;28;20431;-78
2022/01/03 10:53:46;;;;;;;39.20;25.08;;;359.10;2329.60;;;;;;5019992;28;20061;-78
2022/01/03 10:56:35;;;;;;;43.65;25.25;;;359.20;2329.60;;;;;;5032600;28;20036;-78
2022/01/03 10:59:22;;;;;;;33.35;23.08;;;359.20;2329.60;;;;;;5025206;28;20845;-78
2022/01/03 11:01:53;;;;;;;31.40;20.15;;;359.20;2329.60;;;;;;5020575;28;20037;-77
2022/01/03 11:04:55;;;;;;;31.88;20.55;;;359.30;2329.60;;;;;;5022128;28;20046;-77
2022/01/03 11:13:11;;;;;;;31.92;21.17;;;359.00;2329.60;;;;;;5034002;28;20032;-77
2022/01/03 11:15:56;;;;;;;29.17;18.92;;;358.80;2329.60;;;;;;5036565;28;20052;-78
2022/01/03 11:18:25;;;;;;;36.05;23.05;;;358.60;2329.60;;;;;;5039445;28;20026;-77
2022/01/03 11:21:17;;;;;;;30.67;19.95;;;358.60;2329.60;;;;;;5022897;28;20026;-78
2022/01/03 11:23:44;;;;;;;30.50;20.58;;;358.50;2329.60;;;;;;5027219;28;20028;-78
2022/01/03 11:26:12;;;;;;;32.53;23.10;;;358.40;2329.60;;;;;;5029163;28;20073;-77
2022/01/03 11:28:39;;;;;;;33.28;21.67;;;358.40;2329.60;;;;;;5022363;28;20041;-78
2022/01/03 11:31:06;;;;;;;30.88;21.77;;;358.40;2329.60;;;;;;5025743;28;20245;-78
2022/01/03 11:33:35;;;;;;;35.85;22.05;;;358.50;2329.60;;;;;;5026582;28;20034;-78
2022/01/03 11:36:01;;;;;;;33.28;22.85;;;358.50;2329.60;;;;;;5017462;28;20030;-78
2022/01/03 11:38:30;;;;;;;42.28;27.60;;;358.60;2329.60;;;;;;5023529;28;20030;-78
2022/01/03 11:41:05;;;;;;;42.13;26.92;;;358.60;2329.60;;;;;;5024252;28;20060;-77
2022/01/03 11:43:33;;;;;;;39.20;27.37;;;358.60;2329.60;;;;;;5024546;28;20413;-78
2022/01/03 11:46:00;;;;;;;38.90;25.63;;;358.80;2329.60;;;;;;5026932;28;20041;-78
2022/01/03 11:48:26;;;;;;;45.45;25.60;;;358.80;2329.60;;;;;;5024716;28;20510;-78
2022/01/03 11:50:59;;;;;;;43.35;27.00;;;358.90;2329.60;;;;;;5023372;28;20030;-78
2022/01/03 11:53:25;;;;;;;47.65;29.08;;;358.90;2329.60;;;;;;5022483;28;20503;-79
2022/01/03 11:55:57;;;;;;;29.00;21.55;;;358.90;2329.60;;;;;;5022516;28;20021;-77
2022/01/03 12:04:02;;;;;;;34.22;24.35;;;358.70;2329.60;;;;;;5025632;28;20038;-77
2022/01/03 12:06:32;;;;;;;40.83;23.75;;;358.80;2329.60;;;;;;5029293;28;20623;-77
2022/01/03 12:09:12;;;;;;;32.53;23.27;;;359.00;2329.60;;;;;;5024764;28;20036;-76
2022/01/03 12:11:46;;;;;;;34.15;21.15;;;359.20;2329.60;;;;;;5040525;28;20087;-77
2022/01/03 12:14:16;;;;;;;32.67;22.00;;;384.20;2329.60;;;;;;5026540;28;20484;-77
2022/01/03 12:17:03;;;;;;;27.52;18.23;;;384.40;2329.60;;;;;;5021058;28;20018;-77
2022/01/03 12:19:36;;;;;;;31.60;21.02;;;384.20;2329.60;;;;;;5027267;28;20028;-77
2022/01/03 12:22:15;;;;;;;34.78;22.40;;;384.20;2329.60;;;;;;5018593;28;20034;-77
2022/01/03 12:25:02;;;;;;;31.52;21.23;;;384.10;2329.60;;;;;;5027991;28;20033;-77
2022/01/03 12:27:29;;;;;;;36.10;22.27;;;384.10;2329.60;;;;;;5019667;28;20473;-78
2022/01/03 12:32:29;;;;;;;30.60;20.92;;;384.00;2329.60;;;;;;5027118;28;20037;-77